Mayfield Township, Maine
Current Conditions -  °F | °C
As of 4:55 PM on Sunday 23 Nov 2014 (Local Time) from KWVL Reporting Station
Few Clouds Few Clouds  
Wind Chill: 43°   Ceiling: Unl
Heat Index: 43°   Visibility: 10mi
Dew Point: 34°   Wind: 0mph
Humidity: 70%   Direction: NA
Pressure: 30.06"   Gusts: NA
Location:  45.0644°N, 69.6033°W
Report Text: KWVL 232155Z 00000KT 10SM FEW041 06/01 A3006 RMK AO1
Loading
Personal Weather Stations






























Interactive Weather Map New forecast layout! Learn more

10-Day Weather Forecast

Advertisements
Track Severe Weather on mobile